Time;durP1;ratioP1;P1;durP2;ratioP2;P2;SDS_P1;SDS_P2;PMS_P1;PMS_P2;Temp;Humidity;BMP_temperature;BMP_pressure;BME280_temperature;BME280_humidity;BME280_pressure;Samples;Min_cycle;Max_cycle;Signal;HPM_P1;HPM_P2
2021/03/24 00:04:28;;;;;;;1.42;1.33;;;;;;;5.17;66.30;100224.63;4358564;32;37302;-76
2021/03/24 00:07:43;;;;;;;3.35;3.15;;;;;;;5.25;65.68;100234.66;4340133;32;34165;-75
2021/03/24 00:14:08;;;;;;;1.65;1.55;;;;;;;5.68;64.15;100226.47;4355773;32;33471;-75
2021/03/24 00:18:04;;;;;;;3.87;1.42;;;;;;;5.21;66.10;100226.13;4309040;33;35080;-76
2021/03/24 00:38:42;;;;;;;11.75;3.22;;;;;;;5.89;63.58;100232.94;4256900;33;33972;-76
2021/03/24 00:42:56;;;;;;;4.43;3.42;;;;;;;5.73;64.21;100224.34;4268428;33;34053;-75
2021/03/24 01:05:48;;;;;;;5.05;4.60;;;;;;;5.69;64.15;100217.59;4222029;33;33166;-76
2021/03/24 01:18:59;;;;;;;6.97;2.97;;;;;;;5.71;63.52;100229.69;4249210;33;33083;-76
2021/03/24 01:22:35;;;;;;;5.82;3.00;;;;;;;5.88;62.98;100240.00;4280341;33;33381;-76
2021/03/24 01:25:50;;;;;;;1.65;1.40;;;;;;;6.14;61.92;100225.03;4268321;33;34741;-76
2021/03/24 01:29:33;;;;;;;2.05;1.87;;;;;;;6.15;61.95;100232.00;4271009;33;35034;-75
2021/03/24 02:12:49;;;;;;;2.53;2.33;;;;;;;5.95;62.46;100236.00;4308839;33;33200;-76
2021/03/24 02:30:05;;;;;;;4.32;2.30;;;;;;;6.15;61.60;100232.84;4286400;33;34361;-77
2021/03/24 02:33:06;;;;;;;3.55;2.83;;;;;;;6.06;62.01;100253.78;4270533;33;35222;-76
2021/03/24 03:15:03;;;;;;;2.70;2.45;;;;;;;6.25;62.21;100272.69;4308769;33;34350;-76
2021/03/24 03:39:31;;;;;;;2.17;1.95;;;;;;;6.41;61.58;100270.66;4142262;34;33596;-76
2021/03/24 03:43:09;;;;;;;2.67;2.35;;;;;;;6.47;61.40;100278.16;4150726;34;35671;-76
2021/03/24 03:54:02;;;;;;;2.85;2.22;;;;;;;6.53;61.07;100277.75;4166421;34;34748;-76
2021/03/24 04:14:28;;;;;;;3.53;2.85;;;;;;;6.33;61.21;100299.44;4294189;33;33857;-76
2021/03/24 04:23:56;;;;;;;;;;;;;;;6.55;60.28;100286.41;4352710;32;33802;-75
2021/03/24 04:27:10;;;;;;;5.15;3.42;;;;;;;6.40;60.68;100303.31;4373877;32;36237;-76
2021/03/24 04:37:09;;;;;;;4.32;3.10;;;;;;;6.21;61.10;100301.13;4358193;32;35773;-76
2021/03/24 04:41:02;;;;;;;4.20;2.50;;;;;;;6.44;60.36;100297.72;4314559;33;34237;-77
2021/03/24 04:44:43;;;;;;;2.22;1.40;;;;;;;6.27;60.81;100300.69;4301265;33;33225;-76
2021/03/24 04:48:19;;;;;;;4.60;3.33;;;;;;;6.03;61.51;100291.78;4313990;33;34094;-75
2021/03/24 05:15:38;;;;;;;2.33;2.08;;;;;;;6.09;61.11;100314.31;4236045;33;34112;-76
2021/03/24 05:23:32;;;;;;;3.75;2.40;;;;;;;5.85;61.77;100323.84;4237507;33;33437;-77
2021/03/24 05:26:50;;;;;;;1.58;1.12;;;;;;;6.06;61.39;100323.28;4241962;33;33220;-75
2021/03/24 05:30:25;;;;;;;3.60;2.47;;;;;;;5.77;62.41;100326.97;4224939;33;33418;-75
2021/03/24 05:37:26;;;;;;;1.60;1.50;;;;;;;5.98;61.82;100330.03;4315225;33;35739;-76
2021/03/24 05:41:31;;;;;;;2.50;2.30;;;;;;;5.99;61.82;100322.00;4233631;33;34676;-76
2021/03/24 05:45:30;;;;;;;2.15;2.03;;;;;;;5.84;62.19;100324.81;4256722;33;34272;-75
2021/03/24 06:27:55;;;;;;;;;;;;;;;;;;;;;
2021/03/24 06:31:47;;;;;;;2.33;1.95;;;;;;;6.73;59.74;100369.72;4299176;33;34206;-75
2021/03/24 06:56:52;;;;;;;2.00;1.77;;;;;;;7.55;57.44;100373.50;4182330;34;33727;-76
2021/03/24 07:00:50;;;;;;;3.28;2.42;;;;;;;7.94;56.65;100366.09;4168217;34;33682;-77
2021/03/24 07:04:19;;;;;;;2.17;2.05;;;;;;;7.97;56.48;100372.97;4180738;34;34019;-76
2021/03/24 07:08:14;;;;;;;5.22;2.30;;;;;;;8.25;55.67;100372.63;4185940;34;33426;-76
2021/03/24 07:11:57;;;;;;;5.68;2.60;;;;;;;8.10;55.64;100376.41;4174755;34;33399;-76
2021/03/24 07:15:46;;;;;;;3.30;2.12;;;;;;;8.54;54.92;100375.59;4177712;34;34701;-77
2021/03/24 07:22:14;;;;;;;4.53;2.80;;;;;;;8.69;54.89;100382.38;4224695;33;33499;-76
2021/03/24 07:25:40;;;;;;;1.55;1.37;;;;;;;8.59;54.43;100380.53;4264356;33;34431;-76
2021/03/24 07:40:11;;;;;;;3.25;1.92;;;;;;;9.05;52.94;100389.28;4315853;33;33762;-77
2021/03/24 08:05:33;;;;;;;4.43;3.05;;;;;;;9.95;50.26;100403.16;4354027;32;32697;-77
2021/03/24 08:17:11;;;;;;;4.18;1.73;;;;;;;10.01;50.16;100405.31;4339548;32;34638;-77
2021/03/24 08:20:49;;;;;;;3.37;2.58;;;;;;;10.32;49.01;100404.50;4352598;32;34726;-78
2021/03/24 08:23:38;;;;;;;2.00;1.25;;;;;;;10.32;48.79;100412.47;4447228;27;32795;-73
2021/03/24 08:26:11;;;;;;;4.33;2.83;;;;;;;10.42;48.29;100411.59;4393446;32;34479;-73
2021/03/24 08:28:41;;;;;;;6.32;3.00;;;;;;;10.30;47.71;100414.44;4375384;32;35726;-73
2021/03/24 08:31:23;;;;;;;2.30;2.10;;;;;;;9.99;48.31;100413.41;4391226;32;34291;-73
2021/03/24 08:33:54;;;;;;;3.90;2.87;;;;;;;10.45;47.48;100415.78;4391636;32;33303;-73
2021/03/24 08:36:30;;;;;;;1.55;1.30;;;;;;;10.51;47.15;100413.47;4393279;32;36374;-73
2021/03/24 08:39:39;;;;;;;7.45;3.62;;;;;;;10.48;47.60;100418.22;4391248;32;33967;-73
2021/03/24 08:42:15;;;;;;;1.90;1.77;;;;;;;10.59;47.30;100415.50;4363473;32;31753;-73
2021/03/24 08:45:03;;;;;;;5.55;2.90;;;;;;;10.19;47.69;100410.00;4378033;32;33620;-73
2021/03/24 08:47:40;;;;;;;3.60;2.70;;;;;;;10.65;46.79;100407.81;4366258;32;35194;-73
2021/03/24 08:50:29;;;;;;;2.50;1.17;;;;;;;10.67;46.50;100411.19;4365697;32;33796;-73
2021/03/24 08:53:05;;;;;;;;;;;;;;;10.56;47.45;100405.12;4351692;32;32671;-73
2021/03/24 08:55:46;;;;;;;4.45;1.87;;;;;;;10.91;47.00;100410.91;4377661;32;33870;-74
2021/03/24 08:58:23;;;;;;;2.25;1.60;;;;;;;10.65;46.80;100407.00;4373991;32;35540;-75
2021/03/24 09:01:27;;;;;;;2.58;1.60;;;;;;;10.94;46.34;100416.81;4361300;32;34336;-75
2021/03/24 09:04:03;;;;;;;3.15;2.70;;;;;;;10.94;45.98;100414.16;4374641;32;33257;-74
2021/03/24 09:06:41;;;;;;;5.60;4.32;;;;;;;10.75;47.26;100411.38;4377297;32;33318;-74
2021/03/24 09:09:33;;;;;;;3.73;2.23;;;;;;;10.65;47.25;100404.34;4375901;32;35015;-74
2021/03/24 09:12:10;;;;;;;2.30;1.98;;;;;;;10.91;46.80;100403.78;4352438;32;33145;-74
2021/03/24 09:15:03;;;;;;;2.65;1.98;;;;;;;10.63;46.56;100392.94;4364604;32;33785;-74
2021/03/24 09:18:20;;;;;;;2.00;1.73;;;;;;;10.53;46.59;100403.56;4355241;32;34593;-74
2021/03/24 09:21:09;;;;;;;3.58;2.60;;;;;;;10.96;46.50;100403.41;4354030;32;36054;-74
2021/03/24 09:24:03;;;;;;;2.50;1.95;;;;;;;11.07;46.17;100395.31;4352402;32;32824;-74
2021/03/24 09:26:40;;;;;;;2.45;1.65;;;;;;;11.07;45.31;100390.84;4362086;32;34695;-74
2021/03/24 09:29:23;;;;;;;4.15;2.75;;;;;;;11.10;45.30;100390.56;4373498;32;33156;-75
2021/03/24 09:32:12;;;;;;;5.45;2.22;;;;;;;11.41;45.80;100386.91;4349832;32;34665;-75
2021/03/24 09:34:42;;;;;;;2.90;1.63;;;;;;;11.42;44.17;100392.09;4372333;32;34068;-74
2021/03/24 09:37:15;;;;;;;4.87;2.47;;;;;;;11.81;43.57;100390.44;4362806;32;32053;-74
2021/03/24 09:39:56;;;;;;;3.12;2.40;;;;;;;11.61;44.60;100384.19;4348512;32;33411;-74
2021/03/24 09:42:33;;;;;;;3.92;2.45;;;;;;;11.63;44.66;100390.22;4373665;32;35732;-75
2021/03/24 09:45:07;;;;;;;1.85;1.70;;;;;;;11.80;44.17;100384.25;4343133;32;33273;-74
2021/03/24 09:47:56;;;;;;;3.67;3.12;;;;;;;12.01;43.70;100384.97;4363311;32;32715;-74
2021/03/24 09:50:34;;;;;;;2.47;1.70;;;;;;;11.52;44.47;100386.78;4361156;32;33501;-74
2021/03/24 09:53:21;;;;;;;4.05;2.55;;;;;;;11.78;42.63;100388.03;4349133;32;34666;-75
2021/03/24 09:55:54;;;;;;;3.05;1.85;;;;;;;11.36;44.05;100381.16;4342293;32;35169;-76
2021/03/24 09:58:21;;;;;;;3.05;2.22;;;;;;;11.56;43.51;100389.06;4381541;32;33119;-73
2021/03/24 10:01:08;;;;;;;1.85;1.27;;;;;;;11.57;43.80;100388.12;4383350;32;34480;-74
2021/03/24 10:03:38;;;;;;;2.03;1.20;;;;;;;11.78;43.46;100380.03;4377302;32;35013;-73
2021/03/24 10:06:11;;;;;;;2.83;1.95;;;;;;;11.88;42.55;100383.53;4380819;32;34566;-74
2021/03/24 10:08:42;;;;;;;4.00;1.10;;;;;;;11.94;43.33;100378.53;4377289;32;33505;-76
2021/03/24 10:11:19;;;;;;;2.53;1.55;;;;;;;11.81;42.48;100380.59;4389007;32;33391;-73
2021/03/24 10:13:52;;;;;;;;;;;;;;;11.92;42.20;100372.47;4390063;32;35658;-74
2021/03/24 10:16:33;;;;;;;2.83;2.33;;;;;;;11.69;42.99;100371.03;4389551;32;34131;-74
2021/03/24 10:19:25;;;;;;;1.77;0.82;;;;;;;11.80;43.07;100372.72;4380488;32;33900;-75
2021/03/24 10:21:56;;;;;;;3.03;1.27;;;;;;;11.76;42.80;100366.00;4372778;32;34326;-75
2021/03/24 10:24:31;;;;;;;3.22;1.95;;;;;;;11.89;42.58;100375.41;4376189;32;35696;-75
2021/03/24 10:27:06;;;;;;;5.60;2.67;;;;;;;11.68;42.68;100385.34;4370527;32;32889;-75
2021/03/24 10:30:07;;;;;;;3.37;3.10;;;;;;;11.55;44.10;100389.22;4371384;32;34052;-75
2021/03/24 10:32:38;;;;;;;4.10;3.45;;;;;;;11.21;45.31;100387.00;4380084;32;34165;-74
2021/03/24 10:35:53;;;;;;;7.00;3.75;;;;;;;10.95;46.25;100396.37;4382403;32;36724;-76
2021/03/24 10:38:30;;;;;;;2.67;2.12;;;;;;;10.50;47.83;100394.97;4384237;32;34316;-74
2021/03/24 10:41:17;;;;;;;3.22;2.20;;;;;;;10.39;48.05;100395.88;4382060;32;35377;-74
2021/03/24 10:44:06;;;;;;;1.77;1.62;;;;;;;10.31;48.26;100390.34;4378701;32;34507;-74
2021/03/24 10:47:12;;;;;;;7.07;3.00;;;;;;;10.16;48.93;100382.81;4392693;32;35411;-74
2021/03/24 10:50:12;;;;;;;4.05;2.28;;;;;;;9.90;49.24;100384.09;4381155;32;33542;-74
2021/03/24 10:52:43;;;;;;;4.25;3.95;;;;;;;9.58;49.99;100386.72;4378297;32;32866;-74
2021/03/24 10:55:19;;;;;;;2.97;2.67;;;;;;;9.45;50.70;100387.81;4386775;32;33019;-74
2021/03/24 10:58:08;;;;;;;8.48;3.12;;;;;;;9.56;50.63;100385.97;4374898;32;35200;-74
2021/03/24 11:00:41;;;;;;;4.50;2.95;;;;;;;9.46;50.64;100387.69;4378555;32;35203;-74
2021/03/24 11:03:21;;;;;;;1.92;1.55;;;;;;;9.43;50.97;100377.31;4377347;32;34133;-74
2021/03/24 11:06:08;;;;;;;3.62;2.42;;;;;;;9.28;50.91;100367.09;4370256;32;35117;-75
2021/03/24 11:08:43;;;;;;;7.97;3.17;;;;;;;9.46;50.60;100374.41;4373971;32;34464;-74
2021/03/24 11:11:16;;;;;;;5.50;3.22;;;;;;;9.37;50.37;100369.81;4390376;32;34526;-74
2021/03/24 11:13:50;;;;;;;2.00;1.90;;;;;;;9.46;50.69;100374.41;4388633;32;34626;-74
2021/03/24 11:16:27;;;;;;;3.10;2.85;;;;;;;9.71;49.26;100376.78;4377788;32;34766;-75
2021/03/24 11:19:18;;;;;;;4.18;3.55;;;;;;;10.07;48.61;100376.44;4375706;32;36308;-74
2021/03/24 11:21:50;;;;;;;3.65;2.40;;;;;;;10.03;48.42;100375.00;4369206;32;34628;-74
2021/03/24 11:24:24;;;;;;;4.10;1.77;;;;;;;10.11;48.30;100377.03;4385094;32;33978;-74
2021/03/24 11:27:07;;;;;;;1.85;1.33;;;;;;;10.41;47.34;100370.00;4376990;32;32969;-74
2021/03/24 11:29:39;;;;;;;6.72;2.03;;;;;;;10.14;47.54;100374.97;4364482;32;36057;-74
2021/03/24 11:32:17;;;;;;;2.28;2.05;;;;;;;9.77;49.51;100383.41;4371374;32;33963;-74
2021/03/24 11:35:01;;;;;;;2.87;1.70;;;;;;;10.38;47.36;100374.75;4376782;32;32422;-74
2021/03/24 11:37:47;;;;;;;2.97;2.78;;;;;;;10.58;47.55;100368.56;4376076;32;33312;-74
2021/03/24 11:40:30;;;;;;;4.10;2.67;;;;;;;10.80;45.90;100371.06;4383102;32;34358;-74
2021/03/24 11:43:07;;;;;;;2.67;1.90;;;;;;;10.58;46.84;100358.75;4381553;32;34079;-74
2021/03/24 11:45:40;;;;;;;4.22;3.28;;;;;;;10.90;45.94;100345.34;4365172;32;32160;-75
2021/03/24 11:48:12;;;;;;;1.58;1.45;;;;;;;10.66;46.05;100352.81;4367548;32;34326;-73
2021/03/24 11:51:19;;;;;;;2.90;2.15;;;;;;;10.76;45.74;100345.72;4378341;32;35041;-74
2021/03/24 11:54:15;;;;;;;1.95;1.62;;;;;;;10.96;45.95;100348.31;4373442;32;34020;-74
2021/03/24 11:56:52;;;;;;;10.30;3.15;;;;;;;10.95;45.51;100349.28;4356207;32;33961;-74
2021/03/24 11:59:43;;;;;;;2.22;1.75;;;;;;;10.91;45.67;100355.87;4377727;32;34322;-74
2021/03/24 12:02:31;;;;;;;1.35;0.82;;;;;;;10.98;45.01;100343.72;4380715;32;34469;-74
2021/03/24 12:05:06;;;;;;;3.87;3.62;;;;;;;10.69;45.75;100342.75;4390688;32;33853;-74
2021/03/24 12:07:51;;;;;;;2.50;2.25;;;;;;;10.37;46.96;100341.97;4373846;32;32901;-74
2021/03/24 12:10:38;;;;;;;5.25;2.72;;;;;;;10.49;46.24;100348.06;4378477;32;34383;-75
2021/03/24 12:13:19;;;;;;;2.55;2.30;;;;;;;10.43;46.89;100341.47;4394155;32;35430;-74
2021/03/24 12:16:06;;;;;;;2.80;2.58;;;;;;;10.15;48.05;100342.09;4380933;32;33689;-75
2021/03/24 12:18:53;;;;;;;2.92;1.67;;;;;;;10.14;47.56;100342.22;4378672;32;32722;-74
2021/03/24 12:21:29;;;;;;;1.90;1.65;;;;;;;10.10;47.54;100341.63;4380947;32;34514;-74
2021/03/24 12:23:59;;;;;;;3.40;2.50;;;;;;;9.98;47.90;100342.63;4393432;32;35986;-75
2021/03/24 12:26:30;;;;;;;3.42;1.52;;;;;;;9.98;47.94;100342.63;4391969;32;33877;-74
2021/03/24 12:29:12;;;;;;;12.18;4.32;;;;;;;9.94;47.96;100335.84;4390388;32;32625;-75
2021/03/24 12:32:20;;;;;;;7.95;2.67;;;;;;;9.75;48.36;100333.03;4383077;32;33692;-74
2021/03/24 12:34:48;;;;;;;7.65;4.30;;;;;;;9.46;49.43;100337.22;4365309;32;34547;-75
2021/03/24 12:37:28;;;;;;;2.95;2.35;;;;;;;9.83;48.36;100332.44;4379441;32;34227;-75
2021/03/24 12:40:20;;;;;;;5.93;2.83;;;;;;;9.83;48.46;100329.75;4384979;32;31252;-74
2021/03/24 12:42:49;;;;;;;4.50;3.10;;;;;;;9.77;48.95;100335.56;4373372;32;34083;-74
2021/03/24 12:45:31;;;;;;;6.05;4.62;;;;;;;9.21;50.23;100332.22;4378597;32;35962;-74
2021/03/24 12:48:12;;;;;;;4.85;2.10;;;;;;;9.59;49.44;100329.97;4385623;32;35213;-74
2021/03/24 12:51:06;;;;;;;2.53;2.33;;;;;;;9.33;49.88;100333.03;4381199;32;33041;-74
2021/03/24 12:53:57;;;;;;;9.15;2.90;;;;;;;9.66;49.12;100335.63;4369546;32;33946;-74
2021/03/24 12:56:55;;;;;;;5.57;3.55;;;;;;;9.51;49.76;100331.53;4370907;32;34813;-74
2021/03/24 13:00:01;;;;;;;2.08;1.75;;;;;;;9.79;49.24;100331.81;4367590;32;34809;-77
2021/03/24 13:03:03;;;;;;;1.98;1.60;;;;;;;9.59;49.73;100324.66;4381043;32;33933;-75
2021/03/24 13:05:59;;;;;;;4.93;3.60;;;;;;;10.31;47.77;100323.84;4384644;32;34925;-74
2021/03/24 13:08:32;;;;;;;4.35;2.45;;;;;;;10.43;47.41;100317.53;4379196;32;35922;-74
2021/03/24 13:11:26;;;;;;;3.58;2.80;;;;;;;10.32;47.57;100309.62;4379547;32;32561;-74
2021/03/24 13:14:13;;;;;;;2.00;1.80;;;;;;;10.07;48.37;100323.28;4384410;32;33144;-74
2021/03/24 13:17:19;;;;;;;2.35;2.17;;;;;;;10.32;47.67;100316.75;4380562;32;34193;-74
2021/03/24 13:20:14;;;;;;;2.92;2.72;;;;;;;10.47;46.84;100310.94;4367351;32;35833;-73
2021/03/24 13:22:46;;;;;;;4.72;3.17;;;;;;;10.30;47.41;100311.53;4381691;32;34191;-73
2021/03/24 13:25:25;;;;;;;3.00;2.72;;;;;;;10.35;47.31;100308.50;4380310;32;33208;-75
2021/03/24 13:28:14;;;;;;;2.05;1.90;;;;;;;9.89;48.60;100306.19;4381020;32;34309;-74
2021/03/24 13:30:50;;;;;;;6.75;3.55;;;;;;;9.62;49.23;100308.44;4370215;32;34414;-75
2021/03/24 13:33:44;;;;;;;4.47;1.73;;;;;;;9.76;48.90;100299.34;4370024;32;35164;-75
2021/03/24 13:36:30;;;;;;;2.70;2.50;;;;;;;9.92;48.64;100300.59;4388971;32;33589;-74
2021/03/24 13:39:01;;;;;;;5.72;2.47;;;;;;;9.87;48.96;100308.13;4381513;32;33706;-75
2021/03/24 13:41:32;;;;;;;4.93;2.28;;;;;;;10.21;47.88;100301.69;4390583;32;34047;-75
2021/03/24 13:44:17;;;;;;;4.65;2.72;;;;;;;9.86;49.03;100297.63;4379210;32;34087;-75
2021/03/24 13:46:51;;;;;;;3.87;3.10;;;;;;;10.14;48.46;100294.37;4369101;32;34797;-75
2021/03/24 13:49:32;;;;;;;5.82;3.28;;;;;;;10.31;47.65;100296.44;4365860;32;34855;-75
2021/03/24 13:52:07;;;;;;;3.87;2.30;;;;;;;10.13;48.34;100296.19;4378839;32;36237;-75
2021/03/24 13:54:48;;;;;;;4.43;3.17;;;;;;;10.30;47.94;100303.56;4382148;32;34723;-75
2021/03/24 13:57:32;;;;;;;2.62;2.42;;;;;;;10.31;47.75;100305.25;4381538;32;33502;-74
2021/03/24 14:00:16;;;;;;;4.53;2.40;;;;;;;10.14;48.30;100308.50;4383814;32;33264;-75
2021/03/24 14:03:05;;;;;;;4.25;3.95;;;;;;;10.06;48.54;100310.09;4393392;32;34819;-75
2021/03/24 14:05:38;;;;;;;3.40;1.65;;;;;;;10.10;48.73;100308.91;4393054;32;34980;-74
2021/03/24 14:08:42;;;;;;;6.70;3.90;;;;;;;9.93;49.04;100309.44;4379629;32;33167;-75
2021/03/24 14:11:31;;;;;;;5.30;2.80;;;;;;;10.20;47.98;100300.00;4384777;32;34200;-75
2021/03/24 14:14:50;;;;;;;2.47;1.60;;;;;;;9.94;48.92;100306.62;4382882;32;34752;-75
2021/03/24 14:17:31;;;;;;;3.03;2.78;;;;;;;9.93;49.48;100304.94;4350855;32;36115;-76
2021/03/24 14:20:07;;;;;;;4.70;3.22;;;;;;;10.01;49.45;100299.00;4347731;32;32737;-75
2021/03/24 14:22:41;;;;;;;4.97;4.32;;;;;;;9.96;49.27;100296.72;4344406;32;33317;-73
2021/03/24 14:25:17;;;;;;;5.37;3.70;;;;;;;9.96;49.14;100296.72;4355061;32;35940;-73
2021/03/24 14:31:30;;;;;;;3.65;3.35;;;;;;;9.88;50.12;100301.84;2875326;30;20650;-70
2021/03/24 14:34:42;;;;;;;6.07;4.43;;;;;;;9.61;50.49;100298.81;4314884;33;33582;-71
2021/03/24 14:37:38;;;;;;;4.50;3.08;;;;;;;9.59;50.45;100295.44;4309063;33;34816;-68
2021/03/24 14:40:14;;;;;;;4.55;4.15;;;;;;;9.38;51.46;100297.16;4313832;33;33867;-71
2021/03/24 14:42:53;;;;;;;4.47;3.05;;;;;;;9.26;51.63;100297.34;4339132;32;33048;-68
2021/03/24 14:45:29;;;;;;;4.10;3.28;;;;;;;9.41;51.61;100298.72;4310624;33;33506;-69
2021/03/24 14:48:17;;;;;;;3.72;2.30;;;;;;;9.47;51.52;100288.44;4309323;32;33580;-68
2021/03/24 14:50:58;;;;;;;5.68;3.17;;;;;;;9.71;50.94;100297.06;4342361;32;34186;-70
2021/03/24 14:53:40;;;;;;;3.20;2.08;;;;;;;9.71;50.95;100293.56;4343836;32;34063;-69
2021/03/24 14:56:25;;;;;;;4.47;3.28;;;;;;;9.84;50.45;100289.75;4343831;32;33809;-68
2021/03/24 14:59:01;;;;;;;3.15;2.85;;;;;;;9.65;50.84;100294.91;4344387;32;34706;-69
2021/03/24 15:01:31;;;;;;;2.95;2.00;;;;;;;9.57;51.47;100291.22;4342953;32;33580;-68
2021/03/24 15:04:15;;;;;;;4.90;3.65;;;;;;;9.51;51.75;100295.22;4343591;32;32791;-68
2021/03/24 15:06:48;;;;;;;9.98;3.25;;;;;;;9.89;50.20;100292.88;4340702;32;33292;-69
2021/03/24 15:09:31;;;;;;;4.35;2.40;;;;;;;10.16;49.51;100297.72;4342585;32;35212;-69
2021/03/24 15:12:26;;;;;;;3.83;3.53;;;;;;;9.95;50.17;100299.50;4353294;32;33882;-68
2021/03/24 15:14:53;;;;;;;2.65;2.45;;;;;;;9.88;50.27;100295.66;4324974;32;33965;-68
2021/03/24 15:17:33;;;;;;;2.70;2.20;;;;;;;10.03;49.82;100297.91;4343741;32;34397;-69
2021/03/24 15:20:24;;;;;;;3.15;2.90;;;;;;;9.98;49.93;100296.59;4341236;32;34875;-69
2021/03/24 15:23:01;;;;;;;3.87;2.42;;;;;;;9.92;50.35;100302.44;4342164;32;34557;-69
2021/03/24 15:25:49;;;;;;;4.72;2.85;;;;;;;10.17;49.73;100296.75;4346865;32;32402;-68
2021/03/24 15:28:23;;;;;;;1.33;1.27;;;;;;;10.38;48.75;100292.28;4344051;32;33162;-68
2021/03/24 15:31:05;;;;;;;5.35;3.70;;;;;;;10.43;48.50;100288.25;4351132;32;34011;-68
2021/03/24 15:33:52;;;;;;;3.97;2.17;;;;;;;10.24;49.43;100298.78;4359638;32;35979;-68
2021/03/24 15:36:45;;;;;;;4.03;3.62;;;;;;;10.43;48.65;100298.03;4345858;32;33494;-68
2021/03/24 15:39:25;;;;;;;3.60;3.30;;;;;;;10.49;48.47;100306.34;4358685;32;34235;-68
2021/03/24 15:41:59;;;;;;;6.30;2.80;;;;;;;10.39;48.69;100302.78;4353709;32;35179;-68
2021/03/24 15:44:55;;;;;;;2.67;2.40;;;;;;;10.18;49.48;100306.44;4346469;32;33486;-68
2021/03/24 15:47:30;;;;;;;6.55;3.12;;;;;;;10.54;48.50;100303.28;4347281;32;33552;-68
2021/03/24 15:50:15;;;;;;;4.03;3.20;;;;;;;10.53;48.30;100301.59;4345241;32;35545;-68
2021/03/24 15:52:45;;;;;;;4.25;2.70;;;;;;;10.77;47.85;100310.97;4357447;32;34711;-68
2021/03/24 15:55:29;;;;;;;4.78;2.70;;;;;;;10.30;48.87;100306.22;4344566;32;33628;-70
2021/03/24 15:58:12;;;;;;;5.18;4.62;;;;;;;10.53;48.39;100309.59;4356964;32;32972;-68
2021/03/24 16:00:50;;;;;;;6.68;3.25;;;;;;;10.24;49.71;100309.41;4357655;32;34915;-68
2021/03/24 16:03:46;;;;;;;4.70;3.60;;;;;;;10.21;49.80;100309.66;4346428;32;35868;-69
2021/03/24 16:06:48;;;;;;;3.03;2.83;;;;;;;10.03;50.06;100305.06;4373825;32;36178;-68
2021/03/24 16:09:25;;;;;;;6.15;4.60;;;;;;;10.38;49.01;100306.41;4347436;32;31368;-68
2021/03/24 16:11:57;;;;;;;4.05;3.40;;;;;;;10.58;48.37;100302.88;4348561;32;32136;-68
2021/03/24 16:14:37;;;;;;;6.80;4.50;;;;;;;10.15;49.50;100306.69;4359525;32;33957;-68
2021/03/24 16:17:23;;;;;;;5.90;2.62;;;;;;;10.41;49.02;100310.63;4353994;32;33700;-69
2021/03/24 16:20:16;;;;;;;3.97;2.72;;;;;;;10.57;48.58;100309.19;4346196;32;33839;-68
2021/03/24 16:22:53;;;;;;;4.68;3.50;;;;;;;10.84;47.78;100306.81;4358067;32;34367;-68
2021/03/24 16:25:46;;;;;;;4.80;2.28;;;;;;;10.47;48.69;100302.97;4357909;32;35179;-68
2021/03/24 16:28:45;;;;;;;5.72;3.33;;;;;;;9.94;50.15;100309.28;4358311;32;34192;-68
2021/03/24 16:31:35;;;;;;;8.52;3.22;;;;;;;10.13;49.85;100308.63;4356981;32;33686;-68
2021/03/24 16:34:42;;;;;;;6.40;3.85;;;;;;;10.07;50.29;100309.13;4344331;32;33884;-68
2021/03/24 16:37:12;;;;;;;4.12;3.12;;;;;;;10.41;49.29;100308.84;4356666;32;34791;-69
2021/03/24 16:39:43;;;;;;;3.97;3.17;;;;;;;10.58;48.42;100310.03;4359052;32;35004;-69
2021/03/24 16:42:33;;;;;;;6.72;2.55;;;;;;;10.60;48.60;100308.09;4356599;32;34007;-68
2021/03/24 16:45:19;;;;;;;5.60;4.22;;;;;;;10.77;48.13;100308.31;4368079;32;33845;-68
2021/03/24 16:48:00;;;;;;;7.03;4.78;;;;;;;10.64;48.98;100310.34;4358316;32;34866;-68
2021/03/24 16:50:40;;;;;;;5.03;3.75;;;;;;;10.69;48.48;100321.47;4362637;32;34290;-68
2021/03/24 16:53:13;;;;;;;4.72;3.83;;;;;;;10.79;48.28;100321.50;4360186;32;33255;-68
2021/03/24 16:55:41;;;;;;;5.40;4.60;;;;;;;10.81;48.17;100324.84;4357440;32;33268;-68
2021/03/24 16:58:18;;;;;;;11.95;4.00;;;;;;;10.69;48.31;100325.91;4333200;32;34956;-68
2021/03/24 17:01:10;;;;;;;7.10;3.58;;;;;;;10.68;48.59;100327.72;4356672;32;34205;-68
2021/03/24 17:04:12;;;;;;;6.20;4.47;;;;;;;10.64;48.63;100328.97;4355177;32;33010;-68
2021/03/24 17:06:54;;;;;;;6.68;4.43;;;;;;;10.65;48.90;100329.84;4354801;32;33687;-68
2021/03/24 17:09:34;;;;;;;5.00;3.70;;;;;;;10.51;48.94;100332.81;4357298;32;34356;-68
2021/03/24 17:12:10;;;;;;;8.32;5.25;;;;;;;10.17;49.84;100334.84;4374605;32;34186;-69
2021/03/24 17:15:02;;;;;;;10.00;3.77;;;;;;;10.63;48.67;100335.28;4359478;32;34194;-68
2021/03/24 17:18:07;;;;;;;5.70;3.78;;;;;;;10.59;48.55;100339.16;4369572;32;33075;-68
2021/03/24 17:20:59;;;;;;;4.45;3.22;;;;;;;10.64;48.41;100346.75;4356507;32;35986;-68
2021/03/24 17:30:59;;;;;;;5.25;3.95;;;;;;;10.81;47.93;100357.66;4354545;32;34620;-68
2021/03/24 17:34:55;;;;;;;;;;;;;;;;;;;;;
2021/03/24 17:38:37;;;;;;;5.68;3.65;;;;;;;10.84;48.02;100361.88;4344693;33;34616;-68
2021/03/24 17:42:03;;;;;;;4.20;3.65;;;;;;;10.79;47.96;100372.91;4344960;33;32981;-68
2021/03/24 17:45:39;;;;;;;7.85;3.37;;;;;;;10.78;47.94;100378.34;4315559;33;35001;-68
2021/03/24 17:48:55;;;;;;;11.10;6.43;;;;;;;10.75;47.96;100383.94;4318093;33;33378;-68
2021/03/24 18:15:00;;;;;;;7.75;3.60;;;;;;;10.31;49.80;100400.97;4266369;33;34890;-69
2021/03/24 18:46:04;;;;;;;10.93;5.55;;;;;;;10.25;50.22;100408.62;4176487;34;33975;-69
2021/03/24 19:02:45;;;;;;;6.32;5.50;;;;;;;9.86;51.30;100420.72;4205490;34;33275;-69
